McAlpin, Florida
Current Conditions -  °F | °C
As of 5:15 PM on Sunday 25 Jan 2015 (Local Time) from K24J Reporting Station
Clear Clear  
Wind Chill: 61°   Ceiling: Unl
Heat Index: 61°   Visibility: 10mi
Dew Point: 45°   Wind: 10mph
Humidity: 55%   Direction: 220°SW
Pressure: 29.95"   Gusts: 17mph
Location:  30.14°N, 82.95°W
Report Text: K24J 252215Z AUTO 22009G15KT 010V020 10SM CLR 16/07 A2995 RMK AO1
Loading
Personal Weather Stations






























Interactive Weather Map New forecast layout! Learn more

10-Day Weather Forecast

Advertisements
Track Severe Weather on mobile